Time;durP1;ratioP1;P1;durP2;ratioP2;P2;SDS_P1;SDS_P2;PMS_P1;PMS_P2;Temp;Humidity;BMP_temperature;BMP_pressure;BME280_temperature;BME280_humidity;BME280_pressure;Samples;Min_cycle;Max_cycle;Signal;HPM_P1;HPM_P2
2022/05/02 07:21:56;;;;;;;9.70;8.85;;;;;;;14.53;64.99;63499.72;4936302;28;1421601;-72
2022/05/02 07:24:50;;;;;;;9.70;8.38;;;;;;;14.90;63.96;63542.78;4964198;28;21195;-73
2022/05/02 07:27:45;;;;;;;8.80;7.63;;;;;;;15.03;62.93;63551.69;4951208;28;20592;-70
2022/05/02 07:30:13;;;;;;;8.52;7.65;;;;;;;15.09;63.33;63554.84;4962506;28;20471;-72
2022/05/02 07:32:40;;;;;;;6.90;6.30;;;;;;;14.93;61.13;63533.06;4963034;29;20216;-72
2022/05/02 07:35:10;;;;;;;7.00;6.50;;;;;;;15.10;60.61;63563.06;4970507;28;20212;-72
2022/05/02 07:37:42;;;;;;;7.85;6.88;;;;;;;15.02;60.12;63550.13;4965626;29;20224;-72
2022/05/02 07:40:12;;;;;;;9.52;6.28;;;;;;;15.10;57.92;63558.44;4953776;28;20356;-73
2022/05/02 07:42:40;;;;;;;7.88;5.95;;;;;;;14.96;58.68;63544.41;4963115;28;20224;-73
2022/05/02 07:45:10;;;;;;;6.47;5.97;;;;;;;15.20;60.00;63566.28;4960169;28;20286;-71
2022/05/02 07:47:38;;;;;;;8.02;7.43;;;;;;;15.42;59.56;63588.63;4963288;28;20223;-72
2022/05/02 07:50:06;;;;;;;6.97;6.45;;;;;;;15.61;58.96;63611.47;4951874;28;20209;-72
2022/05/02 07:52:39;;;;;;;6.40;5.93;;;;;;;15.64;57.70;63614.59;4948294;29;20216;-72
2022/05/02 07:55:09;;;;;;;8.15;5.85;;;;;;;15.83;56.22;63631.78;4955986;29;20279;-72
2022/05/02 07:57:38;;;;;;;10.43;6.10;;;;;;;15.62;57.11;63609.41;4963319;29;20607;-72
2022/05/02 08:00:08;;;;;;;6.65;5.75;;;;;;;15.80;56.24;63633.25;4962747;28;20224;-72
2022/05/02 08:02:35;;;;;;;5.85;5.53;;;;;;;15.58;55.73;63605.25;4946906;29;20224;-74
2022/05/02 08:05:04;;;;;;;11.88;6.47;;;;;;;15.51;55.97;63601.06;4966244;29;20192;-73
2022/05/02 08:07:35;;;;;;;7.25;6.72;;;;;;;16.02;56.86;63651.53;4966175;29;20228;-74
2022/05/02 08:10:38;;;;;;;6.90;6.35;;;;;;;16.22;54.79;63671.81;4962635;28;20203;-72
2022/05/02 08:13:20;;;;;;;7.20;6.60;;;;;;;16.43;54.77;63696.22;4949600;28;20264;-73
2022/05/02 08:15:51;;;;;;;7.70;7.00;;;;;;;16.76;55.41;63730.03;4948807;28;20245;-72
2022/05/02 08:18:42;;;;;;;6.57;6.07;;;;;;;16.90;52.90;63742.03;4953808;28;20216;-73
2022/05/02 08:21:18;;;;;;;7.70;6.50;;;;;;;17.00;55.08;63752.97;4962563;29;20551;-71
2022/05/02 08:27:20;;;;;;;9.02;8.13;;;;;;;16.79;50.84;63733.19;4957477;28;20233;-72
2022/05/02 08:30:03;;;;;;;9.07;8.05;;;;;;;16.95;53.11;63744.66;4958696;29;20212;-72
2022/05/02 08:32:39;;;;;;;7.93;7.25;;;;;;;16.16;53.56;63668.66;4953486;29;20217;-72
2022/05/02 08:35:09;;;;;;;8.38;7.65;;;;;;;16.16;53.69;63671.22;4958072;28;20279;-72
2022/05/02 08:38:04;;;;;;;9.23;8.35;;;;;;;16.24;55.11;63675.94;4967698;28;20223;-73
2022/05/02 08:41:14;;;;;;;7.25;6.65;;;;;;;16.52;53.44;63705.59;4966295;29;20234;-72
2022/05/02 08:44:07;;;;;;;7.60;6.28;;;;;;;16.15;52.06;63670.16;4906573;29;20227;-74
2022/05/02 08:47:10;;;;;;;7.00;6.40;;;;;;;16.04;51.27;63655.66;4961337;28;20236;-73
2022/05/02 08:50:22;;;;;;;7.25;6.28;;;;;;;15.91;52.67;63640.06;4936761;29;20199;-73
2022/05/02 08:53:33;;;;;;;7.95;7.30;;;;;;;16.37;52.83;63684.31;4965397;28;20219;-72
2022/05/02 08:56:45;;;;;;;5.55;5.15;;;;;;;16.08;51.57;63657.25;4891429;29;20453;-72
2022/05/02 08:59:48;;;;;;;6.30;5.80;;;;;;;16.28;52.20;63680.09;4915991;29;20201;-73
2022/05/02 09:02:47;;;;;;;6.53;5.80;;;;;;;15.97;52.36;63645.81;4930536;28;20378;-71
2022/05/02 09:05:46;;;;;;;6.55;5.95;;;;;;;16.72;51.85;63723.31;4966066;29;20204;-71
2022/05/02 09:08:56;;;;;;;6.05;5.60;;;;;;;17.11;49.56;63764.44;4965959;29;20220;-72
2022/05/02 09:11:35;;;;;;;6.80;5.68;;;;;;;17.39;48.34;63795.09;4943289;28;20235;-73
2022/05/02 09:14:43;;;;;;;5.60;5.10;;;;;;;17.66;48.80;63821.19;4964218;29;20538;-72
2022/05/02 09:17:51;;;;;;;4.65;4.30;;;;;;;17.23;46.20;63773.81;4963807;28;20235;-72
2022/05/02 09:21:00;;;;;;;5.07;4.68;;;;;;;17.42;46.39;63798.22;4964577;28;20232;-71
2022/05/02 09:23:54;;;;;;;5.68;5.28;;;;;;;17.60;45.59;63814.41;4938301;29;20228;-71
2022/05/02 09:27:11;;;;;;;4.63;4.32;;;;;;;17.26;45.31;63780.03;4935035;28;20673;-72
2022/05/02 09:30:28;;;;;;;6.93;4.78;;;;;;;17.84;47.07;63836.84;4962754;28;20264;-71
2022/05/02 09:33:37;;;;;;;4.93;4.63;;;;;;;17.28;45.90;63787.28;4875240;29;20272;-72
2022/05/02 09:36:14;;;;;;;4.30;4.07;;;;;;;17.31;47.64;63790.38;4954176;29;20204;-71
2022/05/02 09:38:52;;;;;;;5.00;4.70;;;;;;;17.47;45.89;63803.97;4954161;28;20525;-73
2022/05/02 09:41:51;;;;;;;5.78;4.18;;;;;;;17.38;45.54;63794.56;4963456;29;20243;-72
2022/05/02 09:50:48;;;;;;;4.32;4.00;;;;;;;16.65;46.17;63716.53;4899978;28;20242;-73
2022/05/02 09:53:35;;;;;;;3.22;2.92;;;;;;;16.80;45.69;63734.75;4954975;28;20216;-73
2022/05/02 09:59:08;;;;;;;3.58;3.42;;;;;;;17.55;43.54;63809.72;4954459;29;20329;-72
2022/05/02 10:01:39;;;;;;;3.33;3.15;;;;;;;17.72;42.44;63829.50;4963870;28;20535;-76
2022/05/02 10:04:30;;;;;;;4.50;4.00;;;;;;;17.44;42.86;63800.84;4964007;29;20403;-72
2022/05/02 10:07:04;;;;;;;4.03;3.40;;;;;;;17.56;42.91;63815.91;4950007;28;20220;-72
2022/05/02 10:09:45;;;;;;;4.15;3.75;;;;;;;17.63;43.36;63818.06;4963138;29;20619;-72
2022/05/02 10:12:27;;;;;;;3.80;3.60;;;;;;;17.40;43.98;63796.13;4952761;28;20224;-72
2022/05/02 10:15:11;;;;;;;5.07;4.25;;;;;;;17.57;45.14;63811.28;4959295;28;20227;-72
2022/05/02 10:17:58;;;;;;;4.70;4.40;;;;;;;17.50;44.77;63806.59;4956785;28;20220;-72
2022/05/02 10:20:35;;;;;;;4.50;4.20;;;;;;;17.68;44.74;63825.84;4966538;28;20224;-72
2022/05/02 10:23:15;;;;;;;4.72;4.43;;;;;;;17.98;43.32;63854.50;4965032;28;20241;-74
2022/05/02 10:25:52;;;;;;;5.13;4.63;;;;;;;17.65;43.79;63825.31;4960170;28;20230;-72
2022/05/02 10:28:45;;;;;;;13.52;4.65;;;;;;;17.36;42.75;63792.50;4964185;29;20251;-71
2022/05/02 10:31:19;;;;;;;4.60;4.40;;;;;;;17.32;43.59;63788.34;4953593;29;20208;-72
2022/05/02 10:33:50;;;;;;;5.35;4.95;;;;;;;17.02;43.04;63757.63;4958456;28;20196;-72
2022/05/02 10:36:20;;;;;;;4.78;4.47;;;;;;;17.44;44.23;63800.31;4967521;28;20231;-72
2022/05/02 10:38:54;;;;;;;5.28;4.97;;;;;;;17.76;44.48;63833.63;4963541;28;20204;-72
2022/05/02 10:41:31;;;;;;;4.70;4.40;;;;;;;18.01;44.48;63862.28;4960799;29;20271;-73
2022/05/02 10:44:02;;;;;;;4.68;4.40;;;;;;;17.74;43.23;63831.56;4959690;28;20200;-71
2022/05/02 10:46:31;;;;;;;4.53;4.22;;;;;;;18.42;41.77;63900.38;4963470;28;20290;-72
2022/05/02 10:49:02;;;;;;;4.60;3.85;;;;;;;18.21;42.00;63880.50;4965095;28;20212;-71
2022/05/02 10:51:42;;;;;;;3.58;3.38;;;;;;;18.25;40.96;63885.22;4957394;28;20287;-73
2022/05/02 10:54:10;;;;;;;4.13;3.92;;;;;;;18.63;40.29;63924.31;4958401;28;20205;-72
2022/05/02 10:56:44;;;;;;;4.40;4.10;;;;;;;18.25;38.70;63882.63;4954371;29;20280;-72
2022/05/02 10:59:14;;;;;;;4.55;4.25;;;;;;;18.66;38.01;63924.84;4966538;29;20504;-72
2022/05/02 11:02:21;;;;;;;4.50;4.22;;;;;;;18.83;39.90;63942.56;4963890;28;20527;-72
2022/05/02 11:05:05;;;;;;;18.95;14.68;;;;;;;18.49;38.58;63914.34;4963177;29;20433;-71
2022/05/02 11:07:54;;;;;;;3.83;3.63;;;;;;;18.92;38.24;63956.59;4962435;29;20258;-73
2022/05/02 11:10:22;;;;;;;3.22;2.90;;;;;;;19.26;36.22;63995.13;4940535;29;20234;-71
2022/05/02 11:12:59;;;;;;;3.30;3.10;;;;;;;18.94;35.56;63953.50;4966079;29;20614;-72
2022/05/02 11:15:39;;;;;;;3.72;3.53;;;;;;;19.27;36.59;63985.34;4965315;29;20208;-72
2022/05/02 11:20:41;;;;;;;3.88;3.67;;;;;;;18.99;37.45;63961.84;4961332;28;20216;-72
2022/05/02 11:21:21;;;;;;;3.88;3.67;;;;;;;18.97;37.41;63962.31;4949712;28;20535;-72
2022/05/02 11:24:32;;;;;;;3.63;3.33;;;;;;;19.16;36.04;63974.38;4953276;29;20215;-71
2022/05/02 11:27:08;;;;;;;3.88;3.30;;;;;;;18.46;37.10;63906.59;4930347;29;20232;-71
2022/05/02 11:29:45;;;;;;;3.55;3.25;;;;;;;18.47;38.15;63905.06;4963209;28;20651;-72
2022/05/02 11:32:27;;;;;;;4.10;3.88;;;;;;;18.73;38.48;63934.19;4966425;28;20228;-72
2022/05/02 11:35:04;;;;;;;4.00;3.80;;;;;;;18.88;37.54;63950.34;4964609;29;20523;-73
2022/05/02 11:37:37;;;;;;;4.07;3.88;;;;;;;18.38;39.33;63898.75;4957742;28;20231;-73
2022/05/02 11:40:08;;;;;;;3.47;3.33;;;;;;;18.02;37.96;63861.25;4952911;28;20359;-72
2022/05/02 11:42:41;;;;;;;4.15;3.70;;;;;;;18.01;39.05;63860.22;4971165;29;20310;-72
2022/05/02 11:45:11;;;;;;;3.97;3.67;;;;;;;17.65;42.15;63817.03;4972586;29;20429;-72
2022/05/02 11:48:16;;;;;;;3.85;3.55;;;;;;;17.26;43.72;63779.50;4965722;29;20328;-71
2022/05/02 11:50:46;;;;;;;4.10;3.88;;;;;;;17.37;43.63;63790.97;4958538;28;20227;-71
2022/05/02 11:53:16;;;;;;;5.05;4.65;;;;;;;17.36;44.44;63792.50;4948338;29;20256;-71
2022/05/02 11:55:45;;;;;;;5.47;5.00;;;;;;;17.66;44.47;63820.66;4954086;28;20200;-72
2022/05/02 11:58:21;;;;;;;4.30;4.10;;;;;;;17.60;43.35;63817.00;4966411;28;20228;-71
2022/05/02 12:00:52;;;;;;;4.45;4.15;;;;;;;17.20;43.49;63773.78;4966960;29;20226;-72
2022/05/02 12:03:25;;;;;;;4.28;3.88;;;;;;;16.77;42.88;63731.09;4965608;28;20232;-72
2022/05/02 12:05:55;;;;;;;4.25;3.95;;;;;;;16.81;43.04;63737.81;4955717;28;20211;-72
2022/05/02 12:08:32;;;;;;;4.30;4.10;;;;;;;16.94;42.26;63751.88;4952387;28;20215;-72
2022/05/02 12:11:06;;;;;;;3.85;3.65;;;;;;;17.18;43.16;63771.72;4965395;28;20375;-72
2022/05/02 12:13:36;;;;;;;4.43;4.13;;;;;;;16.84;43.66;63741.47;4960689;28;20204;-72
2022/05/02 12:16:05;;;;;;;5.15;4.75;;;;;;;16.83;43.90;63737.84;4954399;28;20335;-72
2022/05/02 12:18:45;;;;;;;4.72;4.43;;;;;;;16.86;44.38;63735.81;4953615;29;20260;-71
2022/05/02 12:21:16;;;;;;;4.22;3.95;;;;;;;16.60;44.48;63715.97;4947438;28;20236;-71
2022/05/02 12:23:44;;;;;;;4.60;4.30;;;;;;;16.21;45.96;63670.75;4961952;28;20568;-72
2022/05/02 12:26:18;;;;;;;4.22;4.03;;;;;;;16.42;45.38;63692.09;4964360;28;20240;-72
2022/05/02 12:28:47;;;;;;;4.63;4.20;;;;;;;16.25;44.43;63672.34;4964194;28;20208;-72
2022/05/02 12:31:16;;;;;;;6.32;3.92;;;;;;;16.15;46.31;63667.09;4955195;28;20232;-73
2022/05/02 12:33:50;;;;;;;4.75;4.35;;;;;;;16.31;46.11;63686.28;4964900;28;20208;-72
2022/05/02 12:36:19;;;;;;;3.40;3.30;;;;;;;16.52;46.28;63699.94;4964765;29;20232;-72
2022/05/02 12:38:54;;;;;;;3.95;3.58;;;;;;;16.48;45.70;63698.84;4959150;28;20446;-72
2022/05/02 12:41:24;;;;;;;4.28;4.05;;;;;;;16.47;46.65;63694.72;4953393;28;20270;-73
2022/05/02 12:43:54;;;;;;;4.03;3.67;;;;;;;16.57;45.33;63705.66;4964912;29;20210;-72
2022/05/02 12:46:32;;;;;;;4.03;3.80;;;;;;;16.76;44.08;63730.56;4966721;28;20283;-73
2022/05/02 12:49:04;;;;;;;4.32;4.13;;;;;;;16.64;45.29;63717.56;4961754;28;20200;-72
2022/05/02 12:51:32;;;;;;;4.70;4.32;;;;;;;16.63;46.31;63714.47;4961667;29;20224;-73
2022/05/02 12:54:16;;;;;;;5.00;4.78;;;;;;;16.63;45.46;63714.47;4964903;29;20370;-73
2022/05/02 13:02:37;;;;;;;3.90;3.55;;;;;;;16.69;46.11;63722.75;4953614;29;20304;-71
2022/05/02 13:05:12;;;;;;;3.45;3.28;;;;;;;16.58;45.96;63706.19;4962523;29;20208;-72
2022/05/02 13:07:44;;;;;;;3.70;3.45;;;;;;;16.18;45.57;63673.31;4947489;28;20298;-73
2022/05/02 13:10:20;;;;;;;7.97;7.20;;;;;;;16.62;46.36;63712.91;4967129;28;20219;-72
2022/05/02 13:13:04;;;;;;;5.45;3.78;;;;;;;16.20;46.31;63672.81;4970778;28;20222;-70
2022/05/02 13:15:34;;;;;;;4.80;3.45;;;;;;;16.37;45.44;63687.41;4966942;29;20229;-72
2022/05/02 13:18:03;;;;;;;4.03;3.15;;;;;;;16.22;44.20;63671.28;4964697;28;20606;-72
2022/05/02 13:20:32;;;;;;;3.17;2.97;;;;;;;15.88;43.09;63639.53;4968112;29;20218;-73
2022/05/02 13:23:07;;;;;;;3.85;3.50;;;;;;;15.95;44.94;63649.38;4962595;28;20236;-71
2022/05/02 13:26:12;;;;;;;3.90;3.45;;;;;;;15.86;45.89;63636.91;4958254;28;20192;-71
2022/05/02 13:28:52;;;;;;;3.22;3.03;;;;;;;15.83;46.36;63631.25;4950984;28;20200;-72
2022/05/02 13:31:27;;;;;;;3.20;2.80;;;;;;;15.67;47.51;63614.63;4957583;28;20431;-72
2022/05/02 13:33:59;;;;;;;3.35;3.25;;;;;;;15.53;48.09;63603.13;4965393;29;20188;-71
2022/05/02 13:36:31;;;;;;;4.32;4.13;;;;;;;15.76;48.57;63623.97;4949019;28;20275;-73
2022/05/02 13:39:04;;;;;;;3.58;3.28;;;;;;;16.09;48.48;63660.84;4953044;29;20197;-72
2022/05/02 13:41:38;;;;;;;3.78;3.03;;;;;;;15.89;47.90;63642.63;4963248;29;20239;-70
2022/05/02 13:44:18;;;;;;;3.13;3.03;;;;;;;15.67;48.30;63615.13;4962714;28;20204;-72
2022/05/02 13:46:59;;;;;;;3.80;3.60;;;;;;;15.56;47.98;63603.69;4962199;29;20546;-71
2022/05/02 13:49:42;;;;;;;3.42;3.03;;;;;;;15.71;47.48;63623.91;4964852;29;20192;-72
2022/05/02 13:52:46;;;;;;;3.42;3.17;;;;;;;15.57;48.06;63604.22;4945541;29;20664;-72
2022/05/02 13:55:21;;;;;;;5.75;3.38;;;;;;;15.55;47.94;63602.66;4950335;29;20200;-70
2022/05/02 13:57:58;;;;;;;3.95;2.83;;;;;;;15.20;48.16;63566.28;4964673;29;20230;-71
2022/05/02 14:03:38;;;;;;;2.85;2.75;;;;;;;15.13;50.28;63559.00;4920523;29;20264;-72
2022/05/02 14:06:10;;;;;;;3.40;3.20;;;;;;;15.06;50.24;63552.22;4944977;29;20385;-71
2022/05/02 14:08:45;;;;;;;3.08;2.90;;;;;;;15.21;51.06;63566.78;4945158;29;20194;-72
2022/05/02 14:11:16;;;;;;;3.22;3.00;;;;;;;15.48;50.23;63597.44;4945488;28;20212;-73
2022/05/02 14:13:50;;;;;;;4.07;3.53;;;;;;;15.61;50.45;63606.34;4968199;28;20191;-71
2022/05/02 14:16:19;;;;;;;3.22;3.03;;;;;;;15.54;50.24;63606.75;4983836;28;20223;-72
2022/05/02 14:18:51;;;;;;;3.13;2.88;;;;;;;15.44;50.20;63591.22;4984218;28;20262;-73
2022/05/02 14:21:20;;;;;;;3.10;2.90;;;;;;;15.67;49.20;63617.19;4955348;28;20424;-72
2022/05/02 14:23:50;;;;;;;3.42;3.13;;;;;;;15.68;49.70;63613.59;4955615;29;20220;-71
2022/05/02 14:26:18;;;;;;;3.28;3.05;;;;;;;15.59;49.49;63606.81;4967476;29;20239;-72
2022/05/02 14:28:45;;;;;;;3.50;2.92;;;;;;;15.25;49.46;63576.59;4965660;28;20214;-72
2022/05/02 14:31:13;;;;;;;2.60;2.50;;;;;;;14.85;49.49;63535.03;4948464;29;20197;-71
2022/05/02 14:33:41;;;;;;;2.85;2.63;;;;;;;14.89;50.31;63542.25;4948603;29;20201;-71
2022/05/02 14:36:09;;;;;;;3.17;2.97;;;;;;;14.40;51.38;63488.28;4948706;29;20219;-71
2022/05/02 14:38:37;;;;;;;4.30;2.58;;;;;;;14.44;52.02;63487.31;4953630;28;20447;-72
2022/05/02 14:41:06;;;;;;;2.60;2.50;;;;;;;14.36;52.62;63482.06;4967372;29;20224;-71
2022/05/02 14:43:34;;;;;;;3.50;3.10;;;;;;;14.48;53.07;63486.84;4967627;29;20216;-71
2022/05/02 14:46:02;;;;;;;2.80;2.60;;;;;;;14.49;52.71;63492.50;4967886;29;20236;-71
2022/05/02 14:48:29;;;;;;;2.28;2.17;;;;;;;14.35;53.46;63478.47;4952452;28;20257;-72
2022/05/02 14:51:03;;;;;;;3.65;2.72;;;;;;;14.19;53.16;63463.88;4986128;28;20238;-73
2022/05/02 14:53:37;;;;;;;2.70;2.60;;;;;;;14.02;53.92;63446.22;4991268;28;20188;-71
2022/05/02 14:56:10;;;;;;;3.45;2.85;;;;;;;14.42;53.68;63487.78;4981694;28;20204;-72
2022/05/02 14:58:40;;;;;;;2.80;2.70;;;;;;;14.69;53.64;63515.84;4948162;29;20205;-74
2022/05/02 15:01:12;;;;;;;3.03;2.67;;;;;;;14.83;53.09;63528.34;4948251;29;20518;-72
2022/05/02 15:03:45;;;;;;;3.28;2.97;;;;;;;14.60;53.39;63501.88;4948567;29;20212;-73
2022/05/02 15:06:14;;;;;;;2.58;2.47;;;;;;;14.62;51.97;63506.00;4948885;28;20264;-72
2022/05/02 15:09:21;;;;;;;4.20;2.95;;;;;;;14.64;51.52;63510.63;4948245;29;20201;-72
2022/05/02 15:11:58;;;;;;;2.50;2.40;;;;;;;14.22;53.38;63461.88;4936165;29;20387;-72
2022/05/02 15:14:47;;;;;;;2.50;2.40;;;;;;;14.00;54.27;63442.13;4950791;28;20229;-72
2022/05/02 15:17:22;;;;;;;2.53;2.42;;;;;;;13.99;54.79;63443.66;4967167;29;20225;-72
2022/05/02 15:20:00;;;;;;;3.30;3.10;;;;;;;14.03;54.00;63449.84;4967091;29;20184;-72
2022/05/02 15:22:31;;;;;;;3.20;3.00;;;;;;;13.90;55.38;63434.81;4966775;29;20276;-72
2022/05/02 15:25:04;;;;;;;2.63;2.53;;;;;;;13.82;55.79;63426.50;4959736;28;20431;-72
2022/05/02 15:38:49;;;;;;;4.97;2.85;;;;;;;13.48;58.34;63390.69;4965397;29;20211;-71
2022/05/02 15:41:17;;;;;;;9.43;3.47;;;;;;;13.43;58.88;63382.97;4955140;28;20224;-73
2022/05/02 15:43:51;;;;;;;2.83;2.72;;;;;;;13.39;58.75;63379.31;4948002;29;20220;-73
2022/05/02 15:46:20;;;;;;;4.43;3.42;;;;;;;13.38;58.41;63377.78;4954561;29;20232;-72
2022/05/02 15:48:47;;;;;;;4.20;3.55;;;;;;;13.08;59.76;63344.59;4965665;29;20268;-72
2022/05/02 15:51:25;;;;;;;6.47;3.17;;;;;;;13.08;59.67;63349.72;4960631;28;20189;-71
2022/05/02 15:54:34;;;;;;;3.22;3.03;;;;;;;13.20;60.06;63361.66;4964228;29;20259;-72
2022/05/02 15:57:41;;;;;;;2.95;2.72;;;;;;;13.10;61.24;63348.75;4965040;29;20452;-71
2022/05/02 16:00:19;;;;;;;5.55;3.15;;;;;;;12.91;61.92;63329.00;4964159;28;20211;-71
2022/05/02 16:03:10;;;;;;;4.00;3.80;;;;;;;13.06;61.61;63344.59;4955619;29;20379;-71
2022/05/02 16:05:42;;;;;;;3.65;3.42;;;;;;;13.05;63.27;63346.63;4946910;29;20392;-71
2022/05/02 16:11:00;;;;;;;5.38;3.90;;;;;;;12.80;63.44;63326.28;4946438;29;20201;-72
2022/05/02 16:13:38;;;;;;;6.18;3.50;;;;;;;12.73;65.30;63313.91;4951813;29;20452;-71
2022/05/02 16:16:18;;;;;;;3.67;3.47;;;;;;;12.92;65.72;63330.03;4963568;29;20251;-72
2022/05/02 16:18:49;;;;;;;3.40;3.20;;;;;;;12.85;64.84;63320.22;4966012;28;20196;-71
2022/05/02 16:21:21;;;;;;;3.78;3.47;;;;;;;12.86;65.95;63326.88;4965017;29;20248;-71
2022/05/02 16:23:49;;;;;;;4.72;3.88;;;;;;;12.83;64.59;63318.66;4956742;29;20228;-72
2022/05/02 16:26:16;;;;;;;3.67;3.42;;;;;;;12.79;64.61;63317.06;4962596;28;20228;-73
2022/05/02 16:28:49;;;;;;;4.53;3.90;;;;;;;12.62;66.19;63297.41;4962042;29;20267;-72
2022/05/02 16:31:19;;;;;;;4.05;3.83;;;;;;;12.64;66.43;63304.06;4964947;29;20471;-72
2022/05/02 16:33:47;;;;;;;4.38;4.07;;;;;;;12.57;67.64;63299.38;4961382;29;20202;-72
2022/05/02 16:36:13;;;;;;;7.85;4.80;;;;;;;12.59;67.20;63294.31;4949249;28;20225;-72
2022/05/02 16:38:43;;;;;;;5.07;4.25;;;;;;;12.48;68.56;63280.34;4976721;28;20250;-73
2022/05/02 16:41:15;;;;;;;4.35;4.05;;;;;;;12.51;68.38;63288.06;4974101;28;20219;-73
2022/05/02 16:43:43;;;;;;;4.47;4.15;;;;;;;12.49;69.73;63283.91;4971588;28;20260;-74
2022/05/02 16:46:13;;;;;;;4.85;4.47;;;;;;;12.51;70.20;63288.56;4957204;28;20200;-73
2022/05/02 16:48:42;;;;;;;4.80;4.40;;;;;;;12.66;68.84;63301.56;4963993;29;20208;-74
2022/05/02 16:51:10;;;;;;;5.57;5.05;;;;;;;12.63;68.55;63301.00;4963624;29;20223;-72
2022/05/02 16:53:39;;;;;;;7.07;5.18;;;;;;;12.64;68.35;63304.59;4962521;28;20210;-74
2022/05/02 16:56:08;;;;;;;4.93;4.53;;;;;;;12.67;68.13;63307.19;4963355;28;20205;-74
2022/05/02 16:58:34;;;;;;;7.35;5.22;;;;;;;12.53;69.93;63290.63;4959835;29;20208;-74
2022/05/02 17:01:14;;;;;;;5.38;4.97;;;;;;;12.57;69.44;63297.34;4953768;29;20256;-72
2022/05/02 17:03:46;;;;;;;6.90;6.03;;;;;;;12.62;69.34;63302.00;4957294;28;20228;-74
2022/05/02 17:06:13;;;;;;;8.07;5.30;;;;;;;12.55;69.57;63297.81;4956743;29;20212;-73
2022/05/02 17:08:40;;;;;;;5.70;5.20;;;;;;;12.43;70.02;63280.25;4949967;28;20520;-75
2022/05/02 17:11:07;;;;;;;9.93;5.22;;;;;;;12.38;70.74;63274.56;4952566;28;20283;-75
2022/05/02 17:13:36;;;;;;;5.18;4.75;;;;;;;12.25;72.15;63263.66;4946681;28;20464;-73
2022/05/02 17:16:10;;;;;;;6.57;4.38;;;;;;;12.27;72.53;63265.72;4952902;28;20201;-73
2022/05/02 17:18:43;;;;;;;5.72;4.45;;;;;;;12.18;71.95;63254.34;4950370;28;20425;-73
2022/05/02 17:21:17;;;;;;;6.15;5.00;;;;;;;12.26;71.04;63264.69;4946389;28;20209;-73
2022/05/02 17:23:46;;;;;;;6.70;4.93;;;;;;;12.16;72.31;63254.84;4964006;28;20239;-73
2022/05/02 17:26:16;;;;;;;6.20;4.30;;;;;;;12.11;73.86;63249.66;4971449;28;20209;-75
2022/05/02 17:28:45;;;;;;;7.88;4.70;;;;;;;12.00;74.90;63238.25;4961885;28;20204;-72
2022/05/02 17:31:14;;;;;;;5.22;4.72;;;;;;;11.96;76.21;63236.16;4953071;28;20204;-74
2022/05/02 17:33:46;;;;;;;5.22;4.72;;;;;;;11.93;77.00;63233.03;4952587;29;20245;-73
2022/05/02 17:36:16;;;;;;;5.30;4.82;;;;;;;11.92;77.35;63226.88;4946385;29;20384;-74
2022/05/02 17:38:48;;;;;;;5.18;4.47;;;;;;;12.06;76.13;63241.91;4954413;28;20512;-73
2022/05/02 17:41:17;;;;;;;5.63;4.97;;;;;;;12.02;76.44;63237.25;4962330;28;20486;-75
2022/05/02 17:43:49;;;;;;;5.78;4.97;;;;;;;11.87;77.80;63226.81;4952233;29;20552;-75
2022/05/02 17:46:17;;;;;;;9.80;5.50;;;;;;;11.70;78.41;63199.50;4964555;28;20215;-74
2022/05/02 17:48:45;;;;;;;7.18;5.57;;;;;;;11.77;78.03;63211.84;4959410;28;20205;-73
2022/05/02 17:51:16;;;;;;;4.60;4.20;;;;;;;11.86;77.48;63220.66;4956482;29;20387;-74
2022/05/02 17:53:48;;;;;;;9.25;4.63;;;;;;;12.00;76.39;63237.72;4964916;29;20196;-73
2022/05/02 17:56:17;;;;;;;5.95;4.32;;;;;;;11.97;76.79;63234.63;4966492;28;20459;-75
2022/05/02 17:58:44;;;;;;;4.50;4.20;;;;;;;11.89;77.88;63226.84;4963614;28;20235;-73
2022/05/02 18:01:11;;;;;;;3.90;3.60;;;;;;;11.84;78.76;63218.59;4964975;28;20220;-74
2022/05/02 18:03:42;;;;;;;4.40;4.00;;;;;;;11.84;79.07;63219.09;4966935;29;20239;-73
2022/05/02 18:06:23;;;;;;;4.45;4.22;;;;;;;11.83;78.96;63220.63;4969820;28;20197;-74
2022/05/02 18:08:55;;;;;;;4.05;3.85;;;;;;;11.80;79.57;63214.97;4966719;29;20251;-74
2022/05/02 18:14:19;;;;;;;4.28;4.00;;;;;;;11.84;79.07;63218.59;4939401;28;20253;-74
2022/05/02 18:16:49;;;;;;;6.20;5.18;;;;;;;11.74;79.54;63210.78;4965015;28;20516;-74
2022/05/02 18:19:23;;;;;;;4.88;4.30;;;;;;;11.72;79.22;63211.78;4968322;29;20205;-73
2022/05/02 18:22:02;;;;;;;4.95;4.55;;;;;;;11.69;78.98;63203.06;4965847;28;20436;-74
2022/05/02 18:24:36;;;;;;;4.95;4.55;;;;;;;11.65;79.51;63201.97;4964414;28;20566;-73
2022/05/02 18:27:12;;;;;;;4.13;3.83;;;;;;;11.58;80.56;63195.22;4970765;28;20283;-74
2022/05/02 18:29:43;;;;;;;4.20;3.85;;;;;;;11.53;81.83;63181.88;4973913;28;20213;-74
2022/05/02 18:32:25;;;;;;;6.53;5.97;;;;;;;11.39;83.25;63175.53;4966628;28;20297;-74
2022/05/02 18:37:56;;;;;;;5.32;4.82;;;;;;;11.58;83.39;63192.66;4968236;29;20267;-74
2022/05/02 18:40:26;;;;;;;4.70;4.40;;;;;;;11.53;82.29;63187.50;4967849;28;20205;-74
2022/05/02 18:42:54;;;;;;;6.05;5.57;;;;;;;11.54;81.63;63188.53;4961439;28;20247;-74
2022/05/02 18:53:45;;;;;;;5.07;4.00;;;;;;;11.52;80.01;63183.41;4974108;28;20243;-74
2022/05/02 18:56:13;;;;;;;7.25;4.20;;;;;;;11.48;79.61;63182.31;4965365;28;20220;-73
2022/05/02 18:58:43;;;;;;;3.78;3.58;;;;;;;11.52;80.63;63186.47;4968274;28;20269;-74
2022/05/02 19:01:11;;;;;;;4.43;4.10;;;;;;;11.72;79.88;63206.16;4964094;29;20517;-74
2022/05/02 19:03:40;;;;;;;5.95;4.00;;;;;;;11.76;79.83;63210.31;4965505;29;20276;-73
2022/05/02 19:06:09;;;;;;;5.88;3.88;;;;;;;11.72;80.39;63209.22;4966855;29;20212;-76
2022/05/02 19:08:39;;;;;;;5.78;4.10;;;;;;;11.61;81.79;63198.31;4955228;28;20216;-74
2022/05/02 19:11:10;;;;;;;3.90;3.70;;;;;;;11.49;84.77;63180.28;4965215;28;20400;-74
2022/05/02 19:13:42;;;;;;;4.60;4.20;;;;;;;11.52;84.89;63191.03;4961932;29;20217;-74
2022/05/02 19:16:15;;;;;;;4.78;4.30;;;;;;;11.54;85.64;63185.47;4969024;28;20251;-74
2022/05/02 19:18:42;;;;;;;4.57;4.18;;;;;;;11.36;87.56;63171.91;4959485;28;20220;-74
2022/05/02 19:21:20;;;;;;;4.85;4.30;;;;;;;11.36;88.88;63167.34;4964879;29;20245;-73
2022/05/02 19:23:56;;;;;;;4.78;4.47;;;;;;;11.29;91.09;63167.72;4976287;28;20235;-73
2022/05/02 19:26:26;;;;;;;4.90;4.20;;;;;;;11.26;92.44;63159.00;4969800;28;20224;-73
2022/05/02 19:28:57;;;;;;;5.85;4.53;;;;;;;11.27;93.82;63160.56;4961808;28;20246;-74
2022/05/02 19:31:27;;;;;;;5.30;4.75;;;;;;;11.10;96.95;63145.50;4965114;28;20225;-73
2022/05/02 19:39:06;;;;;;;6.53;5.05;;;;;;;11.19;97.46;63149.75;4951448;28;20208;-73
2022/05/02 19:39:43;;;;;;;4.97;4.55;;;;;;;11.05;100.00;63137.78;4956682;29;20197;-74
2022/05/02 19:42:20;;;;;;;6.45;5.05;;;;;;;10.99;100.00;63136.16;4958533;29;20228;-73
2022/05/02 19:44:52;;;;;;;6.30;5.70;;;;;;;10.73;100.00;63106.69;4960113;28;20548;-73
2022/05/02 19:47:23;;;;;;;5.55;5.15;;;;;;;10.68;100.00;63102.03;4962011;28;20232;-75
2022/05/02 19:49:52;;;;;;;10.00;6.07;;;;;;;10.57;100.00;63088.09;4959842;28;20193;-73
2022/05/02 19:52:19;;;;;;;7.57;6.88;;;;;;;10.47;100.00;63080.78;4961712;28;20242;-72
2022/05/02 19:54:47;;;;;;;8.00;7.22;;;;;;;10.27;100.00;63055.00;4952757;28;20205;-72
2022/05/02 19:57:17;;;;;;;11.18;8.13;;;;;;;10.15;100.00;63047.69;4964982;29;20251;-72
2022/05/02 19:59:45;;;;;;;7.50;6.80;;;;;;;9.86;100.00;63012.59;4967133;29;20252;-73
2022/05/02 20:02:13;;;;;;;8.00;5.97;;;;;;;9.78;100.00;63006.34;4966619;29;20464;-74
2022/05/02 20:04:42;;;;;;;8.73;6.50;;;;;;;9.68;100.00;62993.47;4956288;28;20233;-73
2022/05/02 20:07:11;;;;;;;8.43;6.60;;;;;;;9.54;100.00;62984.59;4948084;29;20288;-74
2022/05/02 20:09:38;;;;;;;8.07;7.28;;;;;;;9.52;100.00;62979.97;4948495;29;20201;-73
2022/05/02 20:12:06;;;;;;;7.30;6.70;;;;;;;9.54;100.00;62982.03;4947970;28;20209;-74
2022/05/02 20:14:35;;;;;;;9.48;7.25;;;;;;;9.54;100.00;62982.03;4961944;28;20204;-72
2022/05/02 20:17:02;;;;;;;8.50;7.70;;;;;;;9.40;100.00;62967.03;4966882;29;20228;-72
2022/05/02 20:19:30;;;;;;;8.82;7.65;;;;;;;9.59;100.00;62987.22;4965203;28;20205;-72
2022/05/02 20:21:57;;;;;;;8.45;7.65;;;;;;;9.48;100.00;62975.31;4961760;28;20233;-72
2022/05/02 20:24:25;;;;;;;8.32;7.55;;;;;;;9.34;100.00;62964.41;4947187;28;20241;-73
2022/05/02 20:26:52;;;;;;;7.93;7.00;;;;;;;9.21;100.00;62950.47;4962992;28;20244;-73
2022/05/02 20:29:20;;;;;;;9.75;8.07;;;;;;;9.12;100.00;62943.69;4957130;29;20410;-73